Time;durP1;ratioP1;P1;durP2;ratioP2;P2;SDS_P1;SDS_P2;PMS_P1;PMS_P2;Temp;Humidity;BMP_temperature;BMP_pressure;BME280_temperature;BME280_humidity;BME280_pressure;Samples;Min_cycle;Max_cycle;Signal;HPM_P1;HPM_P2
2022/05/09 00:00:17;;;;;;;10.47;3.30;;;13.00;99.90;;;;;;5060380;28;20229;-75
2022/05/09 00:02:42;;;;;;;10.67;3.10;;;13.10;99.90;;;;;;5073026;28;20198;-75
2022/05/09 00:05:10;;;;;;;9.53;3.00;;;13.10;99.90;;;;;;5073202;28;20203;-74
2022/05/09 00:07:35;;;;;;;10.47;3.07;;;13.00;99.90;;;;;;5073092;28;20238;-74
2022/05/09 00:10:01;;;;;;;8.00;3.20;;;12.70;99.90;;;;;;5072705;28;20236;-74
2022/05/09 00:12:27;;;;;;;12.30;3.43;;;12.70;99.90;;;;;;5054151;28;20347;-74
2022/05/09 00:14:52;;;;;;;7.67;3.07;;;12.80;99.90;;;;;;5065425;28;20214;-74
2022/05/09 00:17:18;;;;;;;13.63;3.13;;;12.80;99.90;;;;;;5073617;28;20179;-75
2022/05/09 00:19:44;;;;;;;10.67;3.20;;;12.70;99.90;;;;;;5072375;28;20209;-74
2022/05/09 00:22:10;;;;;;;9.40;3.57;;;12.70;99.90;;;;;;5054941;28;20721;-74
2022/05/09 00:24:35;;;;;;;12.50;2.87;;;12.50;99.90;;;;;;5064414;28;20215;-74
2022/05/09 00:27:01;;;;;;;9.80;3.70;;;12.40;99.90;;;;;;5054776;28;20580;-74
2022/05/09 00:29:27;;;;;;;12.07;4.10;;;12.20;99.90;;;;;;5072526;28;20175;-74
2022/05/09 00:31:56;;;;;;;10.20;3.00;;;12.20;99.90;;;;;;5072189;28;20203;-75
2022/05/09 00:34:22;;;;;;;13.73;3.97;;;12.00;99.90;;;;;;5064267;28;20262;-74
2022/05/09 00:36:49;;;;;;;7.17;3.20;;;11.90;99.90;;;;;;5054648;28;20206;-74
2022/05/09 00:39:16;;;;;;;10.77;2.80;;;11.90;99.90;;;;;;5072151;28;20202;-74
2022/05/09 00:41:43;;;;;;;6.03;3.00;;;11.80;99.90;;;;;;5061593;28;20172;-75
2022/05/09 00:44:27;;;;;;;14.53;4.13;;;11.90;99.90;;;;;;5067323;28;20203;-73
2022/05/09 00:46:55;;;;;;;10.07;3.73;;;11.90;99.90;;;;;;5072601;28;20679;-74
2022/05/09 00:49:32;;;;;;;14.73;3.67;;;11.70;99.90;;;;;;5072071;28;20203;-73
2022/05/09 00:52:27;;;;;;;10.57;3.07;;;11.60;99.90;;;;;;5052353;28;20294;-77
2022/05/09 00:55:00;;;;;;;7.97;3.30;;;11.50;99.90;;;;;;5038813;28;20736;-74
2022/05/09 00:57:32;;;;;;;8.73;3.57;;;11.60;99.90;;;;;;5071409;28;20285;-76
2022/05/09 01:00:03;;;;;;;11.70;3.33;;;11.70;99.90;;;;;;5052004;28;20242;-75
2022/05/09 01:02:29;;;;;;;10.40;3.23;;;11.80;99.90;;;;;;5051512;28;20737;-75
2022/05/09 01:04:57;;;;;;;15.60;3.67;;;11.80;99.90;;;;;;5059280;28;20211;-74
2022/05/09 01:07:24;;;;;;;9.77;3.33;;;11.50;99.90;;;;;;5042597;28;20291;-75
2022/05/09 01:09:49;;;;;;;12.17;3.80;;;11.40;99.90;;;;;;5063625;28;20203;-76
2022/05/09 01:12:20;;;;;;;12.33;4.00;;;11.30;99.90;;;;;;5072184;28;20710;-75
2022/05/09 01:14:46;;;;;;;10.93;3.70;;;11.30;99.90;;;;;;5071692;28;20219;-75
2022/05/09 01:17:12;;;;;;;7.57;3.27;;;11.30;99.90;;;;;;5064040;28;20171;-76
2022/05/09 01:19:41;;;;;;;14.03;4.03;;;11.20;99.90;;;;;;5054788;28;20214;-75
2022/05/09 01:22:27;;;;;;;11.60;3.13;;;11.10;99.90;;;;;;5065388;28;20207;-75
2022/05/09 01:24:55;;;;;;;10.73;3.83;;;11.10;99.90;;;;;;5046432;28;20758;-76
2022/05/09 01:27:20;;;;;;;9.83;3.77;;;11.10;99.90;;;;;;5063548;28;20207;-75
2022/05/09 01:30:02;;;;;;;9.60;3.13;;;11.20;99.90;;;;;;5059333;28;20170;-75
2022/05/09 01:32:36;;;;;;;10.57;3.93;;;11.20;99.90;;;;;;5068984;28;20175;-75
2022/05/09 01:35:08;;;;;;;11.97;4.13;;;11.10;99.90;;;;;;5062119;28;20211;-75
2022/05/09 01:37:36;;;;;;;13.07;4.00;;;11.10;99.90;;;;;;5071195;28;20292;-75
2022/05/09 01:40:03;;;;;;;8.57;4.13;;;11.00;99.90;;;;;;5057069;28;20290;-75
2022/05/09 01:42:28;;;;;;;10.87;3.23;;;11.10;99.90;;;;;;5068741;28;20563;-75
2022/05/09 01:44:54;;;;;;;12.77;3.23;;;11.00;99.90;;;;;;5040452;28;20261;-75
2022/05/09 01:50:05;;;;;;;9.20;4.17;;;10.70;99.90;;;;;;5059396;28;20256;-75
2022/05/09 01:52:30;;;;;;;12.23;3.97;;;10.70;99.90;;;;;;5062632;28;20211;-75
2022/05/09 01:54:56;;;;;;;14.10;3.57;;;10.80;99.90;;;;;;5066219;28;20238;-75
2022/05/09 01:57:21;;;;;;;9.43;3.73;;;10.90;99.90;;;;;;5067726;28;20699;-74
2022/05/09 01:59:47;;;;;;;8.87;4.10;;;10.90;99.90;;;;;;5058883;28;20254;-76
2022/05/09 02:02:16;;;;;;;8.07;3.60;;;10.90;99.90;;;;;;5058838;28;20377;-75
2022/05/09 02:04:42;;;;;;;15.80;3.83;;;10.80;99.90;;;;;;5067912;28;20287;-75
2022/05/09 02:07:17;;;;;;;11.50;4.07;;;11.00;99.90;;;;;;5065709;28;20655;-75
2022/05/09 02:09:47;;;;;;;9.73;4.03;;;10.90;99.90;;;;;;5036087;28;20198;-75
2022/05/09 02:12:14;;;;;;;13.37;3.73;;;10.90;99.90;;;;;;5070740;28;20234;-75
2022/05/09 02:14:41;;;;;;;12.27;4.10;;;11.00;99.90;;;;;;5070880;28;20276;-75
2022/05/09 02:17:07;;;;;;;14.30;3.80;;;11.00;99.90;;;;;;5038414;28;20211;-75
2022/05/09 02:19:34;;;;;;;13.47;4.40;;;10.90;99.90;;;;;;5067075;28;20207;-75
2022/05/09 02:22:00;;;;;;;14.67;4.37;;;10.70;99.90;;;;;;5064375;28;20581;-76
2022/05/09 02:24:27;;;;;;;11.33;4.03;;;10.60;99.90;;;;;;5044246;28;20637;-75
2022/05/09 02:26:53;;;;;;;11.93;4.10;;;10.60;99.90;;;;;;5070657;28;20193;-75
2022/05/09 02:29:19;;;;;;;8.00;4.03;;;10.60;99.90;;;;;;5070912;28;20648;-76
2022/05/09 02:31:45;;;;;;;12.87;4.40;;;10.50;99.90;;;;;;5066644;28;20211;-75
2022/05/09 02:34:10;;;;;;;11.07;3.80;;;10.60;99.90;;;;;;5032520;28;20208;-75
2022/05/09 02:36:36;;;;;;;12.83;4.23;;;10.60;99.90;;;;;;5069119;28;20683;-75
2022/05/09 02:39:01;;;;;;;12.10;4.00;;;10.60;99.90;;;;;;5052198;28;20175;-76
2022/05/09 02:41:27;;;;;;;11.70;4.00;;;10.60;99.90;;;;;;5070475;28;20186;-77
2022/05/09 02:43:52;;;;;;;12.00;4.37;;;10.60;99.90;;;;;;5043559;28;20208;-77
2022/05/09 02:46:18;;;;;;;14.73;4.40;;;10.60;99.90;;;;;;5041303;28;20195;-77
2022/05/09 02:48:44;;;;;;;13.43;4.53;;;10.50;99.90;;;;;;5059761;28;20307;-77
2022/05/09 02:51:11;;;;;;;15.13;4.10;;;10.50;99.90;;;;;;5059555;28;20219;-77
2022/05/09 02:53:37;;;;;;;10.60;4.00;;;10.40;99.90;;;;;;5043825;28;20175;-77
2022/05/09 02:56:04;;;;;;;19.27;4.67;;;10.60;99.90;;;;;;5063200;28;20206;-77
2022/05/09 02:58:30;;;;;;;14.00;4.47;;;10.60;99.90;;;;;;5071019;28;20206;-77
2022/05/09 03:00:56;;;;;;;16.33;4.53;;;10.60;99.90;;;;;;5072176;28;20695;-77
2022/05/09 03:06:06;;;;;;;12.10;3.90;;;10.50;99.90;;;;;;5075128;28;20268;-78
2022/05/09 03:08:32;;;;;;;15.43;4.13;;;10.40;99.90;;;;;;5073479;28;20190;-77
2022/05/09 03:10:57;;;;;;;14.83;4.67;;;10.30;99.90;;;;;;5049981;28;20287;-77
2022/05/09 03:13:24;;;;;;;12.27;4.53;;;10.30;99.90;;;;;;5060838;28;20572;-77
2022/05/09 03:15:50;;;;;;;13.27;4.90;;;10.30;99.90;;;;;;5059602;28;20222;-76
2022/05/09 03:18:20;;;;;;;15.43;4.63;;;10.20;99.90;;;;;;5073990;28;20238;-77
2022/05/09 03:20:45;;;;;;;10.97;4.17;;;10.10;99.90;;;;;;5057789;28;20213;-77
2022/05/09 03:23:11;;;;;;;11.47;4.80;;;10.20;99.90;;;;;;5075099;28;20230;-78
2022/05/09 03:25:38;;;;;;;13.67;5.10;;;10.10;99.90;;;;;;5048297;28;20277;-77
2022/05/09 03:28:09;;;;;;;13.77;5.27;;;10.00;99.90;;;;;;5055690;28;20210;-76
2022/05/09 03:30:36;;;;;;;10.27;4.40;;;10.20;99.90;;;;;;5075031;28;20230;-77
2022/05/09 03:33:02;;;;;;;12.60;4.87;;;10.30;99.90;;;;;;5075127;28;20171;-77
2022/05/09 03:35:27;;;;;;;14.47;5.07;;;10.30;99.90;;;;;;5066814;28;20274;-77
2022/05/09 03:37:53;;;;;;;10.87;5.00;;;10.20;99.90;;;;;;5074622;28;20282;-77
2022/05/09 03:40:21;;;;;;;13.60;5.20;;;10.20;99.90;;;;;;5047897;28;20294;-77
2022/05/09 03:42:48;;;;;;;13.67;4.70;;;10.30;99.90;;;;;;5057067;28;20211;-77
2022/05/09 03:45:14;;;;;;;14.27;5.17;;;10.40;99.90;;;;;;5061777;28;20222;-77
2022/05/09 03:47:40;;;;;;;15.77;4.67;;;10.40;99.90;;;;;;5072383;28;20236;-75
2022/05/09 03:50:07;;;;;;;32.50;16.70;;;10.50;99.90;;;;;;5069296;28;20293;-77
2022/05/09 03:52:32;;;;;;;13.23;5.67;;;10.40;99.90;;;;;;5048136;28;20223;-77
2022/05/09 03:54:58;;;;;;;10.13;5.47;;;10.50;99.90;;;;;;5066247;28;20741;-78
2022/05/09 03:57:24;;;;;;;15.07;5.10;;;11.50;99.90;;;;;;5074224;28;20217;-76
2022/05/09 03:59:50;;;;;;;10.57;5.00;;;12.60;99.90;;;;;;5066169;28;20290;-77
2022/05/09 04:02:16;;;;;;;15.20;5.40;;;12.80;99.90;;;;;;5067581;28;20547;-77
2022/05/09 04:04:41;;;;;;;14.77;5.20;;;12.80;99.90;;;;;;5062401;28;20288;-77
2022/05/09 04:07:07;;;;;;;12.83;4.43;;;13.90;99.90;;;;;;5044823;28;20203;-77
2022/05/09 04:09:32;;;;;;;8.83;4.77;;;15.00;99.90;;;;;;5072760;28;20230;-77
2022/05/09 04:11:58;;;;;;;10.40;4.73;;;15.50;99.90;;;;;;5066901;28;20175;-77
2022/05/09 04:17:09;;;;;;;14.83;5.57;;;16.50;99.90;;;;;;5075040;28;20260;-78
2022/05/09 04:19:35;;;;;;;11.77;4.97;;;16.80;99.90;;;;;;5056251;28;20742;-77
2022/05/09 04:22:02;;;;;;;11.95;5.13;;;16.60;99.90;;;;;;5056898;28;20806;-77
2022/05/09 04:24:29;;;;;;;8.05;4.10;;;15.90;99.90;;;;;;5074399;28;20280;-77
2022/05/09 04:26:55;;;;;;;13.07;5.18;;;14.50;99.90;;;;;;5066255;28;20175;-78
2022/05/09 04:29:21;;;;;;;13.27;5.73;;;13.90;99.90;;;;;;5057405;28;20178;-76
2022/05/09 04:31:46;;;;;;;8.47;4.63;;;13.20;99.90;;;;;;5048972;28;20207;-78
2022/05/09 04:34:12;;;;;;;9.87;4.60;;;12.50;99.90;;;;;;5065881;28;20228;-77
2022/05/09 04:36:39;;;;;;;9.23;5.20;;;14.90;99.90;;;;;;5072352;28;20951;-77
2022/05/09 04:39:05;;;;;;;10.80;4.30;;;17.00;99.90;;;;;;5042904;28;20317;-77
2022/05/09 04:41:32;;;;;;;9.75;5.00;;;17.90;99.90;;;;;;5055689;28;20568;-78
2022/05/09 04:43:58;;;;;;;9.32;4.55;;;18.80;99.90;;;;;;5039291;28;20203;-78
2022/05/09 04:46:23;;;;;;;10.25;4.68;;;19.80;99.90;;;;;;5073415;28;20205;-75
2022/05/09 04:48:49;;;;;;;12.77;4.93;;;20.30;99.90;;;;;;5055429;28;20618;-76
2022/05/09 04:51:15;;;;;;;9.32;4.43;;;21.00;99.90;;;;;;5072439;28;20650;-76
2022/05/09 04:53:41;;;;;;;9.23;4.80;;;20.50;99.90;;;;;;5055756;28;20209;-76
2022/05/09 04:56:06;;;;;;;9.95;5.13;;;20.30;99.90;;;;;;5063869;28;20770;-76
2022/05/09 04:58:32;;;;;;;8.85;4.68;;;20.00;99.90;;;;;;5071383;28;20207;-76
2022/05/09 05:00:58;;;;;;;10.68;5.10;;;20.70;99.90;;;;;;5048131;28;20710;-76
2022/05/09 05:03:24;;;;;;;12.02;4.70;;;18.90;99.90;;;;;;5050803;28;20309;-76
2022/05/09 05:05:52;;;;;;;12.98;4.88;;;20.10;99.90;;;;;;5071942;28;20206;-76
2022/05/09 05:08:18;;;;;;;13.25;4.97;;;21.10;99.90;;;;;;5072048;28;20651;-76
2022/05/09 05:10:43;;;;;;;8.25;4.63;;;21.00;99.90;;;;;;5071646;28;20203;-76
2022/05/09 05:13:09;;;;;;;10.75;5.28;;;21.40;99.90;;;;;;5053827;28;20245;-76
2022/05/09 05:15:35;;;;;;;8.85;5.30;;;21.10;99.90;;;;;;5054694;28;20222;-75
2022/05/09 05:18:00;;;;;;;7.30;4.65;;;21.50;99.90;;;;;;5071178;28;20670;-74
2022/05/09 05:20:26;;;;;;;8.07;4.70;;;21.40;99.90;;;;;;5071785;28;20175;-75
2022/05/09 05:22:52;;;;;;;7.32;4.50;;;21.60;99.90;;;;;;5071144;28;20207;-75
2022/05/09 05:25:21;;;;;;;8.57;5.47;;;22.30;99.90;;;;;;5053173;28;20213;-75
2022/05/09 05:27:48;;;;;;;11.90;5.28;;;22.00;99.90;;;;;;5071059;28;20210;-75
2022/05/09 05:30:14;;;;;;;10.75;5.00;;;22.90;99.90;;;;;;5053356;28;20271;-75
2022/05/09 05:32:41;;;;;;;10.90;5.00;;;22.50;99.90;;;;;;5065464;28;20183;-75
2022/05/09 05:35:11;;;;;;;7.60;4.68;;;22.90;99.90;;;;;;5053302;28;20687;-75
2022/05/09 05:37:40;;;;;;;8.82;5.05;;;23.00;99.90;;;;;;5053301;28;20207;-75
2022/05/09 05:40:07;;;;;;;10.85;5.15;;;23.40;99.90;;;;;;5071011;28;20306;-75
2022/05/09 05:42:33;;;;;;;7.50;4.80;;;22.80;99.90;;;;;;5070982;28;20654;-75
2022/05/09 05:44:58;;;;;;;10.27;5.07;;;22.40;99.90;;;;;;5070946;28;20202;-75
2022/05/09 05:47:24;;;;;;;10.70;4.75;;;23.70;99.90;;;;;;5053286;28;20546;-73
2022/05/09 05:49:50;;;;;;;9.23;4.85;;;23.40;99.90;;;;;;5052765;28;20249;-75
2022/05/09 05:52:16;;;;;;;6.50;4.43;;;22.30;99.90;;;;;;5071049;28;20650;-75
2022/05/09 05:54:44;;;;;;;9.27;4.95;;;23.10;99.90;;;;;;5070913;28;20844;-75
2022/05/09 05:57:20;;;;;;;11.10;5.65;;;22.90;99.90;;;;;;5053070;28;20205;-75
2022/05/09 05:59:51;;;;;;;8.93;5.82;;;24.00;99.90;;;;;;5052526;28;20171;-76
2022/05/09 06:02:16;;;;;;;9.35;4.63;;;22.80;99.90;;;;;;5065243;28;20183;-73
2022/05/09 06:04:42;;;;;;;9.45;5.25;;;23.00;99.90;;;;;;5070565;28;20276;-75
2022/05/09 06:07:08;;;;;;;16.10;5.85;;;23.50;99.90;;;;;;5071058;28;20194;-75
2022/05/09 06:09:33;;;;;;;9.77;5.35;;;23.20;99.90;;;;;;5052317;28;20276;-75
2022/05/09 06:12:01;;;;;;;10.23;5.28;;;22.50;99.90;;;;;;5070849;28;20170;-75
2022/05/09 06:14:26;;;;;;;8.55;4.90;;;23.20;99.90;;;;;;5070773;28;20211;-75
2022/05/09 06:16:52;;;;;;;9.27;5.38;;;23.10;99.90;;;;;;5070580;28;20210;-75
2022/05/09 06:19:17;;;;;;;10.85;5.72;;;21.40;99.90;;;;;;5069962;28;20203;-75
2022/05/09 06:21:43;;;;;;;9.38;5.05;;;22.10;99.90;;;;;;5049652;28;20704;-75
2022/05/09 06:24:09;;;;;;;9.63;4.90;;;23.00;99.90;;;;;;5047573;28;20230;-76
2022/05/09 06:26:35;;;;;;;11.80;5.43;;;23.30;99.90;;;;;;5070855;28;20179;-76
2022/05/09 06:29:06;;;;;;;7.57;4.68;;;24.10;99.00;;;;;;5069945;28;20682;-75
2022/05/09 06:31:31;;;;;;;8.90;4.43;;;23.50;99.10;;;;;;5064631;28;20660;-75
2022/05/09 06:33:57;;;;;;;6.38;4.75;;;22.60;99.90;;;;;;5052542;28;20211;-76
2022/05/09 06:36:22;;;;;;;13.40;5.63;;;22.60;99.60;;;;;;5070281;28;20214;-76
2022/05/09 06:38:48;;;;;;;7.78;5.25;;;23.20;99.90;;;;;;5070003;28;20237;-75
2022/05/09 06:41:13;;;;;;;6.57;4.80;;;23.50;99.00;;;;;;5071351;28;20592;-75
2022/05/09 06:43:39;;;;;;;7.85;5.15;;;24.40;98.40;;;;;;5051903;28;20238;-75
2022/05/09 06:46:04;;;;;;;10.27;4.50;;;24.80;97.50;;;;;;5070469;28;20249;-75
2022/05/09 06:48:30;;;;;;;9.52;5.55;;;25.70;96.40;;;;;;5070093;28;20270;-74
2022/05/09 06:50:55;;;;;;;47.33;41.33;;;25.60;94.70;;;;;;5070819;28;20191;-74
2022/05/09 06:53:21;;;;;;;13.27;9.98;;;25.80;95.00;;;;;;5053062;28;20199;-74
2022/05/09 06:55:48;;;;;;;15.48;8.27;;;26.60;93.60;;;;;;5070345;28;20645;-75
2022/05/09 06:58:24;;;;;;;8.15;5.78;;;26.00;93.50;;;;;;5069563;28;20195;-76
2022/05/09 07:00:50;;;;;;;7.85;5.00;;;25.40;93.70;;;;;;5069048;28;20248;-75
2022/05/09 07:03:16;;;;;;;7.53;5.10;;;25.40;94.00;;;;;;5066367;28;20215;-75
2022/05/09 07:05:44;;;;;;;8.60;5.28;;;26.40;93.20;;;;;;5070722;28;20206;-76
2022/05/09 07:08:11;;;;;;;9.10;5.80;;;26.80;92.30;;;;;;5052291;28;20244;-75
2022/05/09 07:10:37;;;;;;;15.13;5.95;;;26.80;91.50;;;;;;5044353;28;20218;-75
2022/05/09 07:13:06;;;;;;;11.93;5.63;;;26.70;91.00;;;;;;5070616;28;20687;-75
2022/05/09 07:15:33;;;;;;;7.97;5.18;;;26.80;90.60;;;;;;5069890;28;20372;-75
2022/05/09 07:17:59;;;;;;;9.32;5.10;;;27.00;90.80;;;;;;5069617;28;20595;-74
2022/05/09 07:20:27;;;;;;;9.70;5.43;;;27.00;89.40;;;;;;5052027;28;20167;-74
2022/05/09 07:23:03;;;;;;;9.63;4.97;;;26.70;90.10;;;;;;5069795;28;20280;-75
2022/05/09 07:25:29;;;;;;;10.02;5.05;;;26.60;90.40;;;;;;5051451;28;20340;-75
2022/05/09 07:27:54;;;;;;;8.77;5.03;;;27.30;89.70;;;;;;5069448;28;20299;-75
2022/05/09 07:30:22;;;;;;;7.22;5.35;;;29.20;85.90;;;;;;5069598;28;20206;-75
2022/05/09 07:32:50;;;;;;;7.85;5.63;;;28.80;83.10;;;;;;5052038;28;20179;-75
2022/05/09 07:35:16;;;;;;;6.90;5.20;;;28.70;83.30;;;;;;5066207;28;20206;-75
2022/05/09 07:37:42;;;;;;;13.05;6.22;;;28.10;84.00;;;;;;5069234;28;20691;-75
2022/05/09 07:40:13;;;;;;;10.20;5.43;;;28.50;84.60;;;;;;5069748;28;20230;-75
2022/05/09 07:42:40;;;;;;;9.15;5.63;;;28.50;82.20;;;;;;5069632;28;20230;-75
2022/05/09 07:45:07;;;;;;;7.88;5.18;;;28.00;82.40;;;;;;5051907;28;20675;-75
2022/05/09 07:47:33;;;;;;;9.23;5.30;;;28.40;83.40;;;;;;5072122;28;20174;-74
2022/05/09 07:49:58;;;;;;;12.20;5.80;;;28.60;80.80;;;;;;5072846;28;20348;-74
2022/05/09 07:52:24;;;;;;;10.15;4.88;;;28.40;82.30;;;;;;5073212;28;20325;-75
2022/05/09 07:54:50;;;;;;;11.25;6.32;;;28.10;81.00;;;;;;5073384;28;20214;-74
2022/05/09 07:57:16;;;;;;;9.10;6.30;;;28.20;81.00;;;;;;5073383;28;20274;-75
2022/05/09 07:59:42;;;;;;;10.93;5.72;;;27.70;81.50;;;;;;5070586;28;20199;-75
2022/05/09 08:02:07;;;;;;;10.15;5.90;;;28.30;81.10;;;;;;5062151;28;20203;-74
2022/05/09 08:04:33;;;;;;;12.00;6.13;;;28.60;80.40;;;;;;5073114;28;20754;-75
2022/05/09 08:07:00;;;;;;;9.02;5.47;;;29.70;79.70;;;;;;5073056;28;20206;-75
2022/05/09 08:09:26;;;;;;;9.10;5.78;;;29.70;78.20;;;;;;5072629;28;20683;-75
2022/05/09 08:11:52;;;;;;;9.60;6.13;;;28.90;76.60;;;;;;5073121;28;20179;-74
2022/05/09 08:14:17;;;;;;;9.25;5.70;;;28.20;78.90;;;;;;5073262;28;20210;-74
2022/05/09 08:16:43;;;;;;;10.40;5.82;;;28.80;78.80;;;;;;5055018;28;20210;-74
2022/05/09 08:19:11;;;;;;;12.63;7.35;;;28.10;80.60;;;;;;5072722;28;20195;-74
2022/05/09 08:21:37;;;;;;;13.65;6.18;;;28.30;81.20;;;;;;5062284;28;20265;-75
2022/05/09 08:24:05;;;;;;;8.85;6.28;;;28.00;80.70;;;;;;5066835;28;20213;-75
2022/05/09 08:26:31;;;;;;;14.55;6.18;;;27.70;80.80;;;;;;5073365;28;20682;-75
2022/05/09 08:28:56;;;;;;;8.60;6.38;;;28.10;81.70;;;;;;5072163;28;20226;-74
2022/05/09 08:31:23;;;;;;;12.45;5.75;;;28.80;80.00;;;;;;5066829;28;20196;-74
2022/05/09 08:33:51;;;;;;;10.73;5.88;;;27.80;79.00;;;;;;5072593;28;20207;-75
2022/05/09 08:39:07;;;;;;;8.27;4.78;;;26.70;82.90;;;;;;5060725;28;20214;-75
2022/05/09 08:41:48;;;;;;;9.20;5.10;;;27.30;82.20;;;;;;5072612;28;20561;-74
2022/05/09 08:44:32;;;;;;;7.50;5.40;;;26.90;80.40;;;;;;5072802;28;20222;-74
2022/05/09 08:47:19;;;;;;;10.63;5.15;;;26.90;80.00;;;;;;5072663;28;20203;-75
2022/05/09 08:50:08;;;;;;;12.68;6.20;;;27.00;79.40;;;;;;5071450;28;20245;-74
2022/05/09 08:52:49;;;;;;;11.02;5.32;;;26.50;82.10;;;;;;5063833;28;20207;-75
2022/05/09 08:55:19;;;;;;;12.60;5.95;;;27.50;81.90;;;;;;5072148;28;20206;-75
2022/05/09 08:57:56;;;;;;;12.23;5.78;;;27.00;81.30;;;;;;5071067;28;20622;-74
2022/05/09 09:00:29;;;;;;;12.93;5.10;;;27.10;80.80;;;;;;5071649;28;20207;-74
2022/05/09 09:03:08;;;;;;;6.70;4.18;;;27.10;79.20;;;;;;5048555;28;20198;-74
2022/05/09 09:05:37;;;;;;;15.07;5.90;;;27.10;76.60;;;;;;5072011;28;20208;-74
2022/05/09 09:08:30;;;;;;;11.05;5.07;;;27.30;78.90;;;;;;5071081;28;20683;-75
2022/05/09 09:11:07;;;;;;;8.40;3.85;;;27.10;77.80;;;;;;5049013;28;20223;-75
2022/05/09 09:14:16;;;;;;;11.13;3.42;;;26.60;73.90;;;;;;5069698;28;20202;-74
2022/05/09 09:16:53;;;;;;;7.43;2.90;;;24.60;73.50;;;;;;5051870;28;20309;-74
2022/05/09 09:19:50;;;;;;;5.93;3.30;;;24.70;72.80;;;;;;5071139;28;20690;-74
2022/05/09 09:22:27;;;;;;;8.23;3.95;;;25.40;75.90;;;;;;5063264;28;20291;-74
2022/05/09 09:25:31;;;;;;;6.70;3.67;;;25.50;76.30;;;;;;5071450;28;20631;-74
2022/05/09 09:28:09;;;;;;;6.07;3.83;;;26.10;76.80;;;;;;5071306;28;20285;-75
2022/05/09 09:30:37;;;;;;;10.38;3.67;;;24.10;76.80;;;;;;5071424;28;20309;-75
2022/05/09 09:33:06;;;;;;;6.97;3.78;;;23.50;79.50;;;;;;5065529;28;20567;-75
2022/05/09 09:35:58;;;;;;;8.63;3.83;;;23.00;80.20;;;;;;5072415;28;20203;-75
2022/05/09 09:38:53;;;;;;;9.52;3.80;;;23.70;80.10;;;;;;5070975;28;20741;-75
2022/05/09 09:41:30;;;;;;;8.15;4.00;;;23.70;80.10;;;;;;5045666;28;20678;-75
2022/05/09 09:44:14;;;;;;;7.63;3.47;;;23.40;82.50;;;;;;5064325;28;20206;-74
2022/05/09 09:47:02;;;;;;;8.93;3.83;;;23.20;80.60;;;;;;5053196;28;20206;-74
2022/05/09 09:49:28;;;;;;;6.72;3.67;;;22.70;81.80;;;;;;5070282;28;20231;-74
2022/05/09 09:51:54;;;;;;;9.40;3.83;;;22.10;82.90;;;;;;5070844;28;20264;-75
2022/05/09 09:54:22;;;;;;;10.60;3.95;;;22.60;82.60;;;;;;5071010;28;20215;-74
2022/05/09 09:56:48;;;;;;;6.72;3.33;;;22.20;83.50;;;;;;5055023;28;20240;-75
2022/05/09 09:59:13;;;;;;;6.70;3.63;;;22.50;83.70;;;;;;5070898;28;20171;-74
2022/05/09 10:01:40;;;;;;;9.82;3.78;;;22.90;84.80;;;;;;5064677;28;20715;-74
2022/05/09 10:04:10;;;;;;;7.63;3.55;;;23.20;84.20;;;;;;5070407;28;20226;-74
2022/05/09 10:07:05;;;;;;;8.85;3.53;;;23.30;82.00;;;;;;5070632;28;20243;-74
2022/05/09 10:09:43;;;;;;;6.82;2.80;;;22.00;78.10;;;;;;5051618;28;20298;-74
2022/05/09 10:12:25;;;;;;;6.63;3.38;;;21.80;79.10;;;;;;5070772;28;20215;-75
2022/05/09 10:14:51;;;;;;;8.40;3.60;;;21.60;81.30;;;;;;5052370;28;20517;-74
2022/05/09 10:17:26;;;;;;;10.75;4.45;;;21.90;82.00;;;;;;5071174;28;20174;-74
2022/05/09 10:19:53;;;;;;;12.85;4.30;;;21.50;84.90;;;;;;5055158;28;20206;-74
2022/05/09 10:25:24;;;;;;;7.68;4.03;;;22.00;83.90;;;;;;5070473;28;20256;-74
2022/05/09 10:28:18;;;;;;;8.65;3.38;;;21.30;84.50;;;;;;5070561;28;20622;-75
2022/05/09 10:30:48;;;;;;;9.45;3.13;;;21.60;85.00;;;;;;5069190;28;20210;-75
2022/05/09 10:33:23;;;;;;;8.10;3.60;;;22.00;83.60;;;;;;5066075;28;20207;-75
2022/05/09 10:35:55;;;;;;;10.00;2.95;;;22.60;82.60;;;;;;5054613;28;20194;-74
2022/05/09 10:38:40;;;;;;;7.80;3.75;;;22.10;83.90;;;;;;5061947;28;20660;-74
2022/05/09 10:41:28;;;;;;;8.70;5.40;;;22.70;83.20;;;;;;5064712;28;20297;-74
2022/05/09 10:44:12;;;;;;;7.25;3.60;;;22.80;82.30;;;;;;5070253;28;20213;-74
2022/05/09 10:47:20;;;;;;;8.02;3.33;;;21.90;83.20;;;;;;5052073;28;20213;-74
2022/05/09 10:50:04;;;;;;;7.35;3.22;;;22.00;84.30;;;;;;5060889;28;20211;-75
2022/05/09 10:53:06;;;;;;;6.03;3.20;;;22.30;83.60;;;;;;5070459;28;20203;-74
2022/05/09 10:55:43;;;;;;;7.53;3.42;;;22.70;83.30;;;;;;5052024;28;20588;-75
2022/05/09 10:58:12;;;;;;;5.57;3.13;;;22.40;82.50;;;;;;5069790;28;20270;-74
2022/05/09 11:00:46;;;;;;;7.60;3.83;;;22.30;83.80;;;;;;5070249;28;20216;-75
2022/05/09 11:03:39;;;;;;;5.28;3.28;;;22.40;83.00;;;;;;5061041;28;20254;-74
2022/05/09 11:06:32;;;;;;;8.80;3.28;;;21.80;83.90;;;;;;5058810;28;20214;-75
2022/05/09 11:08:57;;;;;;;6.40;3.03;;;22.10;83.50;;;;;;5069350;28;20171;-75
2022/05/09 11:11:38;;;;;;;5.78;3.33;;;22.10;82.50;;;;;;5070750;28;20177;-75
2022/05/09 11:14:23;;;;;;;4.78;2.80;;;22.40;80.30;;;;;;5069927;28;20215;-74
2022/05/09 11:17:02;;;;;;;6.53;2.78;;;21.80;79.60;;;;;;5080606;22;20227;-72
2022/05/09 11:19:48;;;;;;;5.97;3.22;;;21.80;79.20;;;;;;5034054;28;20200;-72
2022/05/09 11:22:29;;;;;;;6.20;2.65;;;21.40;79.50;;;;;;5054494;28;20228;-73
2022/05/09 11:25:16;;;;;;;6.13;3.10;;;21.50;79.10;;;;;;5056771;28;20241;-74
2022/05/09 11:28:12;;;;;;;5.60;2.88;;;22.10;79.60;;;;;;5036619;28;20239;-72
2022/05/09 11:30:47;;;;;;;6.70;3.10;;;21.70;76.40;;;;;;5037400;28;20673;-74
2022/05/09 11:33:30;;;;;;;8.48;2.95;;;21.50;78.90;;;;;;5027463;28;20207;-74
2022/05/09 11:36:04;;;;;;;6.85;3.05;;;21.70;80.70;;;;;;5016846;28;20196;-72
2022/05/09 11:38:50;;;;;;;5.30;2.85;;;22.10;81.30;;;;;;5018357;28;20196;-73
2022/05/09 11:41:35;;;;;;;5.68;2.70;;;22.60;80.60;;;;;;5019056;28;20595;-74
2022/05/09 11:44:14;;;;;;;7.28;3.15;;;22.80;79.80;;;;;;5018535;28;20223;-74
2022/05/09 11:47:11;;;;;;;5.50;3.28;;;22.70;79.80;;;;;;5036665;28;20295;-74
2022/05/09 11:50:19;;;;;;;7.57;3.33;;;22.70;80.60;;;;;;5035572;28;20321;-73
2022/05/09 11:52:45;;;;;;;6.13;2.53;;;22.60;80.00;;;;;;4956749;28;20210;-73
2022/05/09 11:55:17;;;;;;;6.85;3.03;;;22.20;79.50;;;;;;4955531;28;20203;-73
2022/05/09 11:57:53;;;;;;;9.30;3.42;;;21.80;80.50;;;;;;4981953;28;20270;-73
2022/05/09 12:00:25;;;;;;;6.22;3.08;;;22.00;79.90;;;;;;5034757;28;20208;-74
2022/05/09 12:02:54;;;;;;;6.00;3.17;;;22.20;79.70;;;;;;5012282;28;20662;-73
2022/05/09 12:05:31;;;;;;;5.25;3.00;;;22.90;79.20;;;;;;5019202;28;20195;-73
2022/05/09 12:08:04;;;;;;;6.47;2.67;;;22.30;78.30;;;;;;5018172;28;20200;-73
2022/05/09 12:10:36;;;;;;;5.32;2.75;;;22.40;79.10;;;;;;5018429;28;20208;-73
2022/05/09 12:13:07;;;;;;;9.95;3.25;;;21.90;80.20;;;;;;5018405;28;20258;-74
2022/05/09 12:15:33;;;;;;;7.13;2.97;;;21.50;81.00;;;;;;5018551;28;20814;-73
2022/05/09 12:17:58;;;;;;;5.45;2.83;;;21.40;81.80;;;;;;5036106;28;20180;-73
2022/05/09 12:20:26;;;;;;;7.88;3.40;;;21.60;81.60;;;;;;5036536;28;20617;-73
2022/05/09 12:22:53;;;;;;;7.60;4.00;;;21.70;81.00;;;;;;5035959;28;20645;-73
2022/05/09 12:25:34;;;;;;;5.30;2.90;;;21.80;80.90;;;;;;5017655;28;20204;-73
2022/05/09 12:28:20;;;;;;;7.60;2.50;;;21.60;79.40;;;;;;5002909;28;20664;-72
2022/05/09 12:31:01;;;;;;;4.63;2.72;;;21.30;79.90;;;;;;5017614;28;20207;-73
2022/05/09 12:33:29;;;;;;;6.32;2.90;;;21.30;80.10;;;;;;5015522;28;20215;-72
2022/05/09 12:35:59;;;;;;;6.85;2.63;;;21.50;80.90;;;;;;5035643;28;20204;-73
2022/05/09 12:38:29;;;;;;;7.75;2.78;;;21.50;79.30;;;;;;5035867;28;20220;-72
2022/05/09 12:41:07;;;;;;;3.65;2.35;;;21.20;78.40;;;;;;5035543;28;20325;-73
2022/05/09 12:43:36;;;;;;;6.25;2.47;;;21.60;78.60;;;;;;5035245;28;20216;-73
2022/05/09 12:46:05;;;;;;;5.78;2.80;;;21.50;76.70;;;;;;5036140;28;20776;-73
2022/05/09 12:48:31;;;;;;;3.05;2.08;;;21.60;76.30;;;;;;5016177;28;20212;-72
2022/05/09 12:51:08;;;;;;;5.07;2.50;;;21.90;77.10;;;;;;5035162;28;20538;-73
2022/05/09 12:53:36;;;;;;;3.72;2.40;;;21.70;76.50;;;;;;5035366;28;20182;-72
2022/05/09 12:56:16;;;;;;;4.32;2.55;;;21.20;77.40;;;;;;5017583;28;20625;-73
2022/05/09 12:58:45;;;;;;;6.68;2.80;;;21.20;78.60;;;;;;5016548;28;20587;-73
2022/05/09 13:01:19;;;;;;;5.10;2.33;;;21.40;78.30;;;;;;5030843;28;20284;-72
2022/05/09 13:03:50;;;;;;;4.22;2.30;;;21.40;77.60;;;;;;5017563;28;20223;-73
2022/05/09 13:06:19;;;;;;;6.50;3.00;;;21.20;76.90;;;;;;5017653;28;20216;-73
2022/05/09 13:08:45;;;;;;;3.63;2.60;;;21.20;76.40;;;;;;5034753;28;20234;-72
2022/05/09 13:11:15;;;;;;;9.07;3.08;;;21.50;76.10;;;;;;5017112;28;20209;-73
2022/05/09 13:13:51;;;;;;;8.48;2.97;;;21.80;76.80;;;;;;5035024;28;20231;-73